Time;durP1;ratioP1;P1;durP2;ratioP2;P2;SDS_P1;SDS_P2;PMS_P1;PMS_P2;Temp;Humidity;BMP_temperature;BMP_pressure;BME280_temperature;BME280_humidity;BME280_pressure;Samples;Min_cycle;Max_cycle;Signal;HPM_P1;HPM_P2
2022/08/30 00:02:39;;;;;;;19.38;7.43;;;;;;;15.45;88.36;101868.31;5046989;28;20596;-73
2022/08/30 00:05:04;;;;;;;19.73;7.45;;;;;;;15.41;88.32;101856.00;5039946;28;20163;-73
2022/08/30 00:07:29;;;;;;;22.38;7.68;;;;;;;15.37;88.10;101858.06;5042569;28;20113;-73
2022/08/30 00:09:55;;;;;;;16.77;6.20;;;;;;;15.35;88.32;101860.88;5035117;28;20104;-73
2022/08/30 00:12:20;;;;;;;21.10;6.57;;;;;;;15.32;88.13;101860.28;5046678;28;20028;-73
2022/08/30 00:14:46;;;;;;;18.95;7.53;;;;;;;15.26;88.17;101853.50;5042055;28;20109;-73
2022/08/30 00:17:12;;;;;;;18.83;7.32;;;;;;;15.21;88.46;101852.97;5044029;28;20107;-73
2022/08/30 00:19:37;;;;;;;18.30;7.18;;;;;;;15.19;88.60;101852.22;5044831;28;20036;-73
2022/08/30 00:22:04;;;;;;;20.73;7.97;;;;;;;15.14;88.85;101866.13;5041286;28;20043;-73
2022/08/30 00:24:29;;;;;;;21.05;6.78;;;;;;;15.10;89.07;101861.94;5038421;28;20111;-73
2022/08/30 00:26:54;;;;;;;19.42;7.68;;;;;;;15.09;89.30;101865.59;5042786;28;20156;-72
2022/08/30 00:29:19;;;;;;;19.48;7.88;;;;;;;15.05;89.28;101860.53;5045712;28;20033;-72
2022/08/30 00:31:45;;;;;;;20.13;7.45;;;;;;;15.03;89.49;101864.22;5042126;28;20425;-72
2022/08/30 00:34:10;;;;;;;18.45;6.88;;;;;;;15.00;89.65;101856.34;5036422;28;20056;-72
2022/08/30 00:36:36;;;;;;;18.60;7.13;;;;;;;14.99;89.73;101857.34;5046680;28;20460;-72
2022/08/30 00:39:02;;;;;;;18.13;7.05;;;;;;;14.96;89.90;101862.97;5049926;28;20027;-72
2022/08/30 00:41:27;;;;;;;21.70;7.50;;;;;;;14.97;89.93;101863.84;5043144;28;20028;-73
2022/08/30 00:43:53;;;;;;;18.05;7.43;;;;;;;14.96;90.45;101862.09;5032080;28;20048;-73
2022/08/30 00:46:18;;;;;;;19.38;7.05;;;;;;;14.97;90.85;101864.69;5044458;28;20029;-73
2022/08/30 00:48:46;;;;;;;20.40;7.57;;;;;;;14.98;91.34;101861.03;5050801;28;20457;-73
2022/08/30 00:51:14;;;;;;;20.50;7.63;;;;;;;14.99;90.83;101861.88;5052209;28;20392;-73
2022/08/30 00:53:43;;;;;;;21.10;7.72;;;;;;;15.01;91.71;101865.34;5043068;28;20028;-73
2022/08/30 00:56:09;;;;;;;23.77;7.60;;;;;;;15.03;91.91;101864.22;5041289;28;20095;-73
2022/08/30 00:58:39;;;;;;;20.75;7.15;;;;;;;15.07;92.28;101866.72;5041929;28;20024;-73
2022/08/30 01:01:05;;;;;;;19.33;8.05;;;;;;;15.10;92.15;101863.78;5052081;28;20119;-72
2022/08/30 01:03:33;;;;;;;18.77;7.22;;;;;;;15.14;92.54;101868.84;5033010;28;20113;-72
2022/08/30 01:06:01;;;;;;;19.70;7.97;;;;;;;15.19;92.83;101868.47;5033191;28;20120;-71
2022/08/30 01:08:26;;;;;;;18.65;8.05;;;;;;;15.25;93.16;101865.28;5049847;28;20027;-71
2022/08/30 01:10:53;;;;;;;19.85;7.13;;;;;;;15.27;93.17;101873.31;5049659;28;20033;-71
2022/08/30 01:13:21;;;;;;;17.25;6.93;;;;;;;15.29;93.33;101874.91;5049780;28;20500;-71
2022/08/30 01:15:49;;;;;;;18.58;7.35;;;;;;;15.33;93.11;101875.53;5032587;28;20025;-71
2022/08/30 01:18:16;;;;;;;19.65;7.32;;;;;;;15.35;93.51;101879.84;5046288;28;20045;-71
2022/08/30 01:21:06;;;;;;;19.52;7.53;;;;;;;15.38;93.18;101874.19;5050896;28;20128;-71
2022/08/30 01:23:33;;;;;;;18.58;7.28;;;;;;;15.43;93.18;101870.28;5043938;28;20028;-72
2022/08/30 01:25:59;;;;;;;18.00;6.82;;;;;;;15.45;92.89;101874.59;5036192;28;20033;-71
2022/08/30 01:28:28;;;;;;;19.50;7.45;;;;;;;15.46;92.58;101870.91;5049760;28;20333;-72
2022/08/30 01:30:53;;;;;;;18.00;6.55;;;;;;;15.47;92.50;101867.19;5038397;28;20033;-72
2022/08/30 01:33:19;;;;;;;15.95;6.57;;;;;;;15.48;92.44;101868.09;5046287;28;20114;-72
2022/08/30 01:35:58;;;;;;;20.52;6.40;;;;;;;15.47;92.39;101866.34;5039165;28;20079;-72
2022/08/30 01:38:31;;;;;;;17.35;6.85;;;;;;;15.47;91.78;101867.19;5037255;28;20656;-72
2022/08/30 01:40:59;;;;;;;18.92;7.00;;;;;;;15.47;91.93;101877.19;5045453;28;20032;-72
2022/08/30 01:43:25;;;;;;;18.77;7.22;;;;;;;15.47;91.85;101871.75;5044802;28;20078;-72
2022/08/30 01:45:51;;;;;;;15.23;6.57;;;;;;;15.45;91.72;101880.00;5035432;28;20108;-72
2022/08/30 01:48:16;;;;;;;16.52;6.50;;;;;;;15.42;91.53;101876.66;5045792;28;20108;-72
2022/08/30 01:50:41;;;;;;;17.23;6.22;;;;;;;15.42;91.73;101879.38;5036082;28;20059;-72
2022/08/30 01:53:08;;;;;;;17.67;6.57;;;;;;;15.36;91.96;101870.75;5031003;28;20040;-72
2022/08/30 01:55:34;;;;;;;17.23;6.47;;;;;;;15.34;92.09;101864.59;5032551;28;20055;-72
2022/08/30 01:57:59;;;;;;;17.20;6.30;;;;;;;15.33;92.25;101865.56;5033226;28;20057;-72
2022/08/30 02:00:25;;;;;;;15.65;5.82;;;;;;;15.31;92.31;101863.97;5031391;28;20036;-72
2022/08/30 02:02:50;;;;;;;18.35;6.97;;;;;;;15.32;92.49;101861.13;5041243;28;20029;-72
2022/08/30 02:05:16;;;;;;;17.00;6.60;;;;;;;15.32;92.23;101863.84;5040754;28;20029;-72
2022/08/30 02:07:41;;;;;;;17.88;7.40;;;;;;;15.31;91.92;101867.53;5059437;28;20025;-72
2022/08/30 02:10:07;;;;;;;19.60;6.18;;;;;;;15.29;91.71;101860.53;5048354;28;20033;-72
2022/08/30 02:12:33;;;;;;;17.25;5.85;;;;;;;15.27;91.67;101862.47;5040523;28;20484;-72
2022/08/30 02:14:59;;;;;;;18.40;6.93;;;;;;;15.23;91.48;101860.97;5046550;28;20087;-72
2022/08/30 02:17:25;;;;;;;17.23;6.22;;;;;;;15.19;91.81;101857.66;5036674;28;20496;-72
2022/08/30 02:19:50;;;;;;;16.88;6.60;;;;;;;15.17;91.92;101863.19;5048868;28;20029;-72
2022/08/30 02:22:16;;;;;;;16.70;6.78;;;;;;;15.12;91.46;101854.53;5043618;28;20101;-72
2022/08/30 02:24:41;;;;;;;19.27;6.88;;;;;;;15.09;91.74;101857.47;5044079;28;20457;-72
2022/08/30 02:27:06;;;;;;;19.42;7.35;;;;;;;15.06;92.29;101863.13;5044044;28;20048;-71
2022/08/30 02:29:32;;;;;;;18.85;6.80;;;;;;;15.02;91.78;101851.69;5041840;28;20120;-72
2022/08/30 02:31:58;;;;;;;21.00;7.22;;;;;;;14.99;92.03;101862.75;5047497;28;20024;-72
2022/08/30 02:34:23;;;;;;;21.05;7.00;;;;;;;14.98;91.86;101857.47;5038477;28;20037;-72
2022/08/30 02:36:48;;;;;;;18.83;6.95;;;;;;;14.94;91.94;101848.69;5040206;28;20036;-72
2022/08/30 02:39:14;;;;;;;17.45;6.30;;;;;;;14.92;92.37;101850.66;5043168;28;20477;-72
2022/08/30 02:41:41;;;;;;;18.13;6.40;;;;;;;14.89;92.83;101850.91;5044364;28;20422;-72
2022/08/30 02:44:08;;;;;;;19.38;7.15;;;;;;;14.88;92.95;101842.91;5041115;28;20013;-72
2022/08/30 02:46:33;;;;;;;17.33;7.00;;;;;;;14.87;92.93;101842.00;5047951;28;20477;-72
2022/08/30 02:48:59;;;;;;;18.60;6.55;;;;;;;14.86;93.06;101845.69;5049746;28;20105;-71
2022/08/30 02:51:24;;;;;;;17.75;6.82;;;;;;;14.85;92.91;101843.97;5034401;28;20041;-71
2022/08/30 02:53:50;;;;;;;18.67;7.68;;;;;;;14.85;92.85;101838.56;5041466;28;20135;-71
2022/08/30 02:56:15;;;;;;;20.10;8.13;;;;;;;14.85;92.88;101838.56;5037766;28;20507;-71
2022/08/30 02:58:41;;;;;;;19.15;7.13;;;;;;;14.87;92.98;101846.56;5040119;28;20333;-71
2022/08/30 03:01:08;;;;;;;16.52;6.68;;;;;;;14.85;92.45;101838.56;5044581;28;20493;-71
2022/08/30 03:03:34;;;;;;;18.70;7.45;;;;;;;14.80;92.59;101829.94;5038711;28;20055;-72
2022/08/30 03:06:02;;;;;;;18.38;7.32;;;;;;;14.77;92.68;101835.56;5036390;28;20014;-71
2022/08/30 03:08:27;;;;;;;21.90;6.85;;;;;;;14.75;92.58;101832.97;5045866;28;20021;-71
2022/08/30 03:10:52;;;;;;;17.67;7.10;;;;;;;14.74;92.41;101833.09;5040940;28;20041;-71
2022/08/30 03:13:18;;;;;;;22.30;7.32;;;;;;;14.74;93.06;101835.81;5047254;28;20039;-71
2022/08/30 03:15:43;;;;;;;18.88;7.72;;;;;;;14.71;92.99;101836.03;5048204;28;20494;-71
2022/08/30 03:18:09;;;;;;;16.92;6.55;;;;;;;14.68;93.50;101829.88;5050313;28;20036;-71
2022/08/30 03:20:34;;;;;;;17.88;7.25;;;;;;;14.68;93.65;101837.13;5040351;28;20080;-71
2022/08/30 03:23:00;;;;;;;18.52;7.53;;;;;;;14.72;94.40;101832.38;5042166;28;20029;-72
2022/08/30 03:25:26;;;;;;;19.85;7.35;;;;;;;14.73;94.84;101840.38;5038534;28;20021;-72
2022/08/30 03:27:51;;;;;;;20.38;8.00;;;;;;;14.78;94.86;101837.31;5048086;28;20417;-72
2022/08/30 03:30:18;;;;;;;23.23;8.10;;;;;;;14.79;95.15;101837.19;5034453;28;20029;-71
2022/08/30 03:32:44;;;;;;;20.33;8.00;;;;;;;14.84;95.35;101834.13;5042637;28;20037;-72
2022/08/30 03:35:10;;;;;;;21.33;7.90;;;;;;;14.89;95.16;101839.19;5042252;28;20080;-71
2022/08/30 03:37:36;;;;;;;20.60;7.72;;;;;;;14.92;94.95;101829.00;5047503;28;20136;-71
2022/08/30 03:40:04;;;;;;;20.65;6.95;;;;;;;14.93;94.91;101830.72;5037368;28;20111;-71
2022/08/30 03:42:29;;;;;;;20.08;7.65;;;;;;;14.93;94.30;101830.72;5050731;28;20033;-71
2022/08/30 03:44:55;;;;;;;19.30;7.47;;;;;;;14.93;94.48;101828.00;5043018;28;20436;-72
2022/08/30 03:47:20;;;;;;;21.23;8.68;;;;;;;14.94;94.39;101837.88;5047501;28;20029;-72
2022/08/30 03:49:46;;;;;;;20.40;8.02;;;;;;;14.95;94.35;101836.00;5042792;28;20453;-72
2022/08/30 03:52:11;;;;;;;20.77;8.15;;;;;;;14.96;94.41;101835.03;5044670;28;20037;-71
2022/08/30 03:54:37;;;;;;;19.55;7.85;;;;;;;14.95;94.52;101841.41;5036815;28;20343;-72
2022/08/30 03:57:02;;;;;;;19.23;8.18;;;;;;;14.96;94.45;101846.72;5048080;28;20029;-71
2022/08/30 03:59:28;;;;;;;20.80;7.53;;;;;;;14.96;94.39;101841.31;5042447;28;20449;-71
2022/08/30 04:01:53;;;;;;;19.13;8.70;;;;;;;14.96;94.26;101835.03;5047842;28;20032;-71
2022/08/30 04:04:18;;;;;;;19.60;8.05;;;;;;;14.95;94.25;101833.31;5049065;28;20388;-72
2022/08/30 04:06:44;;;;;;;21.50;8.40;;;;;;;14.94;93.76;101834.31;5049957;28;20029;-71
2022/08/30 04:09:09;;;;;;;20.00;8.07;;;;;;;14.93;93.94;101838.84;5046568;28;20029;-71
2022/08/30 04:11:34;;;;;;;19.92;7.57;;;;;;;14.91;93.58;101826.41;5049901;28;20446;-71
2022/08/30 04:14:00;;;;;;;20.88;8.68;;;;;;;14.87;93.29;101833.03;5036445;28;20178;-71
2022/08/30 04:16:26;;;;;;;19.33;7.95;;;;;;;14.85;93.93;101831.31;5039970;28;20032;-72
2022/08/30 04:18:51;;;;;;;20.80;8.30;;;;;;;14.84;93.86;101831.44;5048525;28;20040;-71
2022/08/30 04:21:16;;;;;;;19.83;8.63;;;;;;;14.81;93.65;101832.50;5037513;28;20429;-71
2022/08/30 04:23:42;;;;;;;24.98;9.27;;;;;;;14.79;94.08;101841.75;5051087;28;20525;-71
2022/08/30 04:26:08;;;;;;;23.00;9.27;;;;;;;14.81;94.14;101840.63;5047539;28;20032;-71
2022/08/30 04:28:34;;;;;;;24.88;9.50;;;;;;;14.81;94.39;101842.50;5033645;28;20063;-72
2022/08/30 04:31:07;;;;;;;20.05;9.68;;;;;;;14.83;94.58;101848.63;5041769;28;20028;-71
2022/08/30 04:33:34;;;;;;;22.35;9.73;;;;;;;14.83;94.71;101846.81;5033556;28;20330;-71
2022/08/30 04:36:03;;;;;;;19.58;8.57;;;;;;;14.85;95.14;101841.28;5043822;28;20056;-71
2022/08/30 04:38:28;;;;;;;19.60;8.27;;;;;;;14.89;95.15;101845.47;5032153;28;20026;-71
2022/08/30 04:40:54;;;;;;;21.10;8.80;;;;;;;14.92;94.83;101849.78;5034814;28;20400;-71
2022/08/30 04:43:19;;;;;;;21.27;9.60;;;;;;;14.92;95.21;101856.06;5035294;28;20029;-71
2022/08/30 04:45:44;;;;;;;20.65;8.85;;;;;;;14.93;94.89;101854.22;5039576;28;20025;-72
2022/08/30 04:48:09;;;;;;;20.60;8.98;;;;;;;14.94;94.80;101854.09;5049955;28;20484;-71
2022/08/30 04:50:35;;;;;;;20.27;9.25;;;;;;;14.95;94.21;101855.84;5047328;28;20036;-71
2022/08/30 04:53:00;;;;;;;20.58;8.98;;;;;;;14.95;94.04;101860.38;5048167;28;20096;-71
2022/08/30 04:55:25;;;;;;;18.85;8.57;;;;;;;14.92;93.80;101855.19;5034767;28;20056;-71
2022/08/30 04:57:51;;;;;;;21.88;9.13;;;;;;;14.91;94.02;101861.59;5046270;28;20099;-71
2022/08/30 05:00:19;;;;;;;21.13;9.73;;;;;;;14.91;93.84;101861.59;5048634;28;20032;-71
2022/08/30 05:02:45;;;;;;;20.27;8.70;;;;;;;14.89;93.84;101860.84;5038255;28;20044;-71
2022/08/30 05:07:55;;;;;;;20.52;9.25;;;;;;;14.88;93.65;101853.72;5032950;28;20040;-71
2022/08/30 05:10:20;;;;;;;22.75;10.40;;;;;;;14.89;93.75;101860.84;5043747;28;20477;-71
2022/08/30 05:12:46;;;;;;;22.52;9.68;;;;;;;14.88;93.77;101860.00;5047182;28;20033;-71
2022/08/30 05:15:11;;;;;;;21.35;9.52;;;;;;;14.86;93.72;101856.50;5040898;28;20025;-71
2022/08/30 05:17:38;;;;;;;22.05;10.23;;;;;;;14.82;93.42;101869.44;5049699;28;20025;-72
2022/08/30 05:20:04;;;;;;;21.88;9.75;;;;;;;14.81;93.71;101869.56;5046389;28;20029;-72
2022/08/30 05:22:30;;;;;;;24.27;10.77;;;;;;;14.79;93.85;101866.09;5044171;28;20032;-72
2022/08/30 05:24:55;;;;;;;20.67;9.38;;;;;;;14.80;94.12;101866.00;5042936;28;20025;-72
2022/08/30 05:27:20;;;;;;;21.48;10.15;;;;;;;14.81;94.38;101874.97;5033082;28;20022;-71
2022/08/30 05:29:46;;;;;;;26.98;10.57;;;;;;;14.84;94.45;101874.72;5038170;28;20033;-71
2022/08/30 05:32:11;;;;;;;20.23;9.38;;;;;;;14.87;94.71;101881.75;5047268;28;20033;-71
2022/08/30 05:34:36;;;;;;;20.73;9.63;;;;;;;14.89;94.70;101877.09;5041376;28;20132;-71
2022/08/30 05:37:01;;;;;;;22.23;10.18;;;;;;;14.93;94.60;101882.16;5035638;28;20029;-71
2022/08/30 05:39:28;;;;;;;21.90;9.98;;;;;;;14.96;94.90;101884.63;5043473;28;20108;-71
2022/08/30 05:41:58;;;;;;;22.65;11.02;;;;;;;15.02;94.53;101880.59;5039791;28;20112;-72
2022/08/30 05:44:23;;;;;;;23.95;11.25;;;;;;;15.06;94.59;101883.94;5038084;28;20125;-72
2022/08/30 05:46:49;;;;;;;24.08;10.82;;;;;;;15.08;94.26;101874.72;5039438;28;20683;-72
2022/08/30 05:49:14;;;;;;;21.50;10.98;;;;;;;15.11;94.82;101876.31;5040350;28;20048;-72
2022/08/30 05:51:40;;;;;;;21.38;10.00;;;;;;;15.10;94.19;101883.59;5040774;28;20457;-72
2022/08/30 05:54:05;;;;;;;22.27;10.77;;;;;;;15.11;93.63;101879.91;5041535;28;20029;-71
2022/08/30 05:56:33;;;;;;;24.52;10.68;;;;;;;15.15;94.09;101875.09;5041416;28;20028;-71
2022/08/30 05:59:00;;;;;;;22.95;10.85;;;;;;;15.16;93.54;101882.25;5040383;28;20033;-71
2022/08/30 06:01:33;;;;;;;21.83;10.85;;;;;;;15.21;93.34;101882.75;5036330;28;20032;-72
2022/08/30 06:04:00;;;;;;;24.00;12.93;;;;;;;15.26;93.26;101891.41;5039730;28;20029;-71
2022/08/30 06:06:27;;;;;;;25.77;13.10;;;;;;;15.32;93.08;101885.50;5038368;28;20043;-71
2022/08/30 06:08:53;;;;;;;23.30;11.90;;;;;;;15.37;93.32;101883.31;5039895;28;20144;-71
2022/08/30 06:11:21;;;;;;;23.23;12.02;;;;;;;15.44;93.06;101891.81;5039896;28;20129;-71
2022/08/30 06:13:47;;;;;;;22.38;11.45;;;;;;;15.51;92.69;101886.81;5039866;28;20026;-71
2022/08/30 06:16:15;;;;;;;21.90;10.52;;;;;;;15.56;92.29;101895.44;5038337;28;20097;-71
2022/08/30 06:18:40;;;;;;;23.45;11.07;;;;;;;15.62;92.66;101886.81;5036514;28;20021;-73
2022/08/30 06:21:05;;;;;;;21.58;10.07;;;;;;;15.68;92.74;101894.47;5040205;28;20046;-71
2022/08/30 06:23:31;;;;;;;24.30;11.05;;;;;;;15.74;91.72;101890.44;5041410;28;20136;-72
2022/08/30 06:26:04;;;;;;;22.25;11.32;;;;;;;15.78;91.67;101889.22;5041781;28;20025;-72
2022/08/30 06:28:29;;;;;;;23.75;11.73;;;;;;;15.85;91.29;101889.59;5042734;28;20071;-72
2022/08/30 06:30:55;;;;;;;21.27;11.25;;;;;;;15.88;90.88;101886.66;5036998;28;20429;-71
2022/08/30 06:33:20;;;;;;;24.52;11.88;;;;;;;15.91;90.54;101886.41;5041617;28;20032;-71
2022/08/30 06:35:45;;;;;;;20.60;10.30;;;;;;;15.95;89.92;101887.03;5048575;28;20381;-71
2022/08/30 06:38:10;;;;;;;22.65;11.48;;;;;;;15.97;90.04;101888.63;5049282;28;20047;-71
2022/08/30 06:40:36;;;;;;;23.63;12.25;;;;;;;15.98;89.90;101890.34;5033762;28;20040;-71
2022/08/30 06:43:01;;;;;;;22.25;10.85;;;;;;;16.02;89.54;101891.84;5054049;28;20031;-71
2022/08/30 06:45:26;;;;;;;25.90;12.73;;;;;;;16.05;89.14;101886.16;5069388;28;20029;-72
2022/08/30 06:47:52;;;;;;;22.42;11.45;;;;;;;16.08;88.28;101890.47;5051328;28;20094;-72
2022/08/30 06:50:19;;;;;;;22.52;12.43;;;;;;;16.10;88.21;101885.78;5069200;28;20480;-72
2022/08/30 06:52:44;;;;;;;22.42;12.15;;;;;;;16.11;88.26;101886.66;5051951;28;20465;-72
2022/08/30 06:55:12;;;;;;;23.50;12.65;;;;;;;16.12;88.26;101881.13;5046623;28;20079;-72
2022/08/30 06:57:38;;;;;;;25.10;12.55;;;;;;;16.15;88.27;101875.44;5032865;28;20017;-72
2022/08/30 07:00:07;;;;;;;28.58;12.45;;;;;;;16.18;88.07;101883.34;5047849;28;20033;-72
2022/08/30 07:02:32;;;;;;;19.35;8.95;;;;;;;16.21;86.18;101883.09;5037693;28;20052;-72
2022/08/30 07:04:57;;;;;;;23.45;11.98;;;;;;;16.27;87.66;101887.16;5036987;28;20052;-72
2022/08/30 07:07:23;;;;;;;24.98;12.02;;;;;;;16.30;87.36;101891.47;5038483;28;20376;-72
2022/08/30 07:09:48;;;;;;;22.30;11.95;;;;;;;16.37;88.33;101893.56;5048050;28;20037;-72
2022/08/30 07:12:14;;;;;;;23.75;12.40;;;;;;;16.43;88.56;101886.78;5036873;28;20064;-72
2022/08/30 07:14:41;;;;;;;22.02;11.45;;;;;;;16.50;88.27;101885.28;5051871;28;20150;-72
2022/08/30 07:18:49;;;;;;;24.27;12.75;;;;;;;16.56;87.64;101886.59;5048595;28;20495;-72
2022/08/30 07:19:53;;;;;;;24.02;13.68;;;;;;;16.63;87.40;101895.97;5048529;28;20036;-71
2022/08/30 07:22:18;;;;;;;23.25;12.40;;;;;;;16.69;87.27;101895.47;5050458;28;20025;-72
2022/08/30 07:24:44;;;;;;;23.75;12.15;;;;;;;16.73;86.25;101899.63;5052455;28;20063;-72
2022/08/30 07:27:09;;;;;;;24.40;12.50;;;;;;;16.78;86.17;101902.84;5039997;28;20014;-72
2022/08/30 07:29:34;;;;;;;21.20;10.80;;;;;;;16.83;86.13;101902.47;5046224;28;20062;-72
2022/08/30 07:32:00;;;;;;;22.33;11.82;;;;;;;16.88;85.89;101896.69;5045076;28;20061;-72
2022/08/30 07:34:25;;;;;;;22.15;11.05;;;;;;;16.91;85.98;101893.69;5031786;28;20160;-72
2022/08/30 07:36:51;;;;;;;22.63;11.15;;;;;;;16.96;85.92;101899.63;5040852;28;20512;-72
2022/08/30 07:39:16;;;;;;;23.67;10.43;;;;;;;17.01;85.58;101897.38;5050227;28;20123;-72
2022/08/30 07:41:43;;;;;;;21.25;10.13;;;;;;;17.06;85.43;101902.44;5044659;28;20120;-71
2022/08/30 07:44:09;;;;;;;22.08;10.85;;;;;;;17.08;83.78;101897.72;5040496;28;20024;-72
2022/08/30 07:46:35;;;;;;;24.40;11.48;;;;;;;17.13;84.94;101900.94;5040605;28;20048;-72
2022/08/30 07:49:00;;;;;;;22.38;11.23;;;;;;;17.18;83.96;101897.81;5050255;28;20031;-72
2022/08/30 07:51:27;;;;;;;20.30;9.88;;;;;;;17.22;84.36;101904.69;5051116;28;20037;-72
2022/08/30 07:53:53;;;;;;;22.25;9.45;;;;;;;17.26;82.95;101906.16;5052097;28;20025;-72
2022/08/30 07:56:19;;;;;;;21.95;9.80;;;;;;;17.30;83.50;101907.63;5047288;28;20124;-72
2022/08/30 07:58:45;;;;;;;21.42;8.95;;;;;;;17.32;83.01;101897.50;5042548;28;20119;-72
2022/08/30 08:01:12;;;;;;;21.00;8.73;;;;;;;17.34;82.89;101906.38;5046064;28;20024;-72
2022/08/30 08:03:39;;;;;;;22.98;11.27;;;;;;;17.41;83.95;101904.88;5035843;28;20132;-72
2022/08/30 08:06:07;;;;;;;19.67;9.00;;;;;;;17.44;83.04;101912.75;5033868;28;20057;-72
2022/08/30 08:08:34;;;;;;;21.80;9.98;;;;;;;17.50;82.84;101907.78;5048809;28;20025;-71
2022/08/30 08:11:12;;;;;;;24.40;10.27;;;;;;;17.56;83.09;101904.53;5033405;28;20464;-71
2022/08/30 08:13:38;;;;;;;22.23;10.48;;;;;;;17.59;82.45;101907.00;5035169;28;20036;-73
2022/08/30 08:16:03;;;;;;;20.08;8.60;;;;;;;17.62;81.43;101907.56;5045962;28;20040;-73
2022/08/30 08:18:30;;;;;;;20.63;9.40;;;;;;;17.69;82.99;101907.91;5045894;28;20033;-73
2022/08/30 08:20:56;;;;;;;20.92;9.63;;;;;;;17.71;81.52;101905.91;5049686;28;20103;-73
2022/08/30 08:23:21;;;;;;;22.05;9.10;;;;;;;17.74;82.19;101911.09;5043995;28;20123;-72
2022/08/30 08:25:46;;;;;;;23.52;8.95;;;;;;;17.76;81.07;101911.84;5041676;28;20028;-72
2022/08/30 08:28:12;;;;;;;20.58;9.25;;;;;;;17.80;80.89;101916.00;5035727;28;20501;-73
2022/08/30 08:30:37;;;;;;;19.60;8.85;;;;;;;17.81;80.99;101915.00;5043306;28;20033;-76
2022/08/30 08:33:04;;;;;;;18.65;7.70;;;;;;;17.86;80.51;101916.47;5047977;28;20389;-72
2022/08/30 08:35:30;;;;;;;17.05;7.38;;;;;;;17.89;80.48;101918.91;5047904;28;20134;-72
2022/08/30 08:37:55;;;;;;;25.90;10.38;;;;;;;17.96;81.16;101922.84;5040974;28;20021;-72
2022/08/30 08:40:21;;;;;;;20.10;7.95;;;;;;;17.98;80.39;101916.28;5041293;28;20400;-72
2022/08/30 08:42:57;;;;;;;23.02;8.38;;;;;;;18.05;79.68;101918.44;5044281;28;20035;-73
2022/08/30 08:45:28;;;;;;;19.35;8.68;;;;;;;18.13;80.68;101919.50;5046034;28;20037;-73
2022/08/30 08:47:59;;;;;;;19.35;8.02;;;;;;;18.19;79.06;101925.41;5049374;28;20032;-72
2022/08/30 08:50:24;;;;;;;14.45;5.05;;;;;;;18.22;78.83;101931.44;5049114;28;20033;-72
2022/08/30 08:55:52;;;;;;;20.38;7.30;;;;;;;18.36;78.27;101926.59;5044584;28;20040;-72
2022/08/30 08:58:40;;;;;;;19.75;7.90;;;;;;;18.42;77.48;101934.22;5046701;28;20029;-73
2022/08/30 09:01:07;;;;;;;19.38;7.70;;;;;;;18.50;76.30;101918.91;5045781;28;20075;-72
2022/08/30 09:03:33;;;;;;;18.35;7.55;;;;;;;18.60;77.14;101920.84;5046876;28;20112;-72
2022/08/30 09:06:02;;;;;;;20.95;6.32;;;;;;;18.63;76.72;101928.72;5039762;28;20690;-72
2022/08/30 09:08:27;;;;;;;20.02;7.10;;;;;;;18.68;75.58;101924.56;5047129;28;20135;-72
2022/08/30 09:10:59;;;;;;;17.35;6.88;;;;;;;18.72;76.72;101919.69;5046717;28;20065;-73
2022/08/30 09:13:25;;;;;;;20.85;7.75;;;;;;;18.81;74.90;101916.13;5045251;28;20037;-72
2022/08/30 09:15:53;;;;;;;19.05;7.15;;;;;;;18.89;75.36;101917.31;5049532;28;20025;-73
2022/08/30 09:18:19;;;;;;;17.50;7.05;;;;;;;18.96;75.46;101913.91;5047491;28;20032;-73
2022/08/30 09:20:47;;;;;;;16.10;6.20;;;;;;;19.00;75.27;101915.31;5061793;28;20036;-73
2022/08/30 09:23:13;;;;;;;19.25;6.78;;;;;;;19.03;73.63;101914.19;5069164;28;20599;-73
2022/08/30 09:25:52;;;;;;;17.65;6.60;;;;;;;19.10;74.48;101918.06;5049712;28;20099;-73
2022/08/30 09:28:25;;;;;;;;;;;;;;;19.12;76.42;101905.19;5047763;28;20029;-73
2022/08/30 09:31:05;;;;;;;18.85;6.05;;;;;;;19.21;75.62;101919.81;5047656;28;19949;-73
2022/08/30 09:33:31;;;;;;;11.82;4.68;;;;;;;19.26;73.88;101919.38;5050416;28;20122;-73
2022/08/30 09:36:09;;;;;;;17.75;6.22;;;;;;;19.32;73.02;101918.78;5049231;28;20412;-73
2022/08/30 09:38:35;;;;;;;15.27;5.10;;;;;;;19.35;74.29;101918.50;5049071;28;20028;-73
2022/08/30 09:41:35;;;;;;;11.70;4.38;;;;;;;19.40;74.03;101921.66;5039357;28;20378;-73
2022/08/30 09:44:07;;;;;;;10.50;4.10;;;;;;;19.41;73.55;101917.91;5032366;28;20064;-72
2022/08/30 09:46:41;;;;;;;16.85;6.15;;;;;;;19.49;73.52;101914.50;5036004;28;20041;-74
2022/08/30 09:49:27;;;;;;;14.45;5.78;;;;;;;19.56;72.58;101926.50;5045076;28;20040;-73
2022/08/30 09:52:14;;;;;;;10.60;3.97;;;;;;;19.58;71.66;101920.91;5029236;28;20127;-74
2022/08/30 09:55:01;;;;;;;10.35;4.63;;;;;;;19.63;72.38;101922.19;5032460;28;20341;-74
2022/08/30 09:58:00;;;;;;;11.48;4.40;;;;;;;19.64;72.52;101921.19;5031855;28;20032;-74
2022/08/30 10:00:27;;;;;;;;;;;;;;;19.68;73.24;101925.38;5050644;28;20029;-73
2022/08/30 10:03:17;;;;;;;10.60;3.92;;;;;;;19.72;71.21;101924.06;5039263;28;20340;-73
2022/08/30 10:06:04;;;;;;;13.00;4.60;;;;;;;19.82;71.10;101925.94;5047969;28;20036;-73
2022/08/30 10:09:07;;;;;;;15.02;4.75;;;;;;;19.89;71.22;101921.63;5049090;28;20413;-73
2022/08/30 10:11:48;;;;;;;13.35;4.97;;;;;;;19.92;69.94;101923.19;5047321;28;20053;-74
2022/08/30 10:14:40;;;;;;;9.20;3.83;;;;;;;19.96;70.54;101921.91;5045378;28;20111;-74
2022/08/30 10:17:37;;;;;;;9.20;3.80;;;;;;;20.02;69.76;101916.69;5051429;28;20037;-74
2022/08/30 10:20:35;;;;;;;17.48;4.22;;;;;;;20.08;69.07;101907.06;5052301;28;20039;-71
2022/08/30 10:23:09;;;;;;;8.85;3.75;;;;;;;20.12;67.58;101910.31;5039636;28;20396;-71
2022/08/30 10:25:52;;;;;;;9.50;3.38;;;;;;;20.12;69.31;101911.22;5039238;28;20479;-71
2022/08/30 10:28:23;;;;;;;10.70;3.35;;;;;;;20.12;66.63;101905.75;5048094;28;20040;-70
2022/08/30 10:30:59;;;;;;;8.55;3.33;;;;;;;20.12;67.53;101915.78;5052635;28;20123;-70
2022/08/30 10:33:36;;;;;;;12.20;4.22;;;;;;;20.18;67.45;101907.03;5036832;28;20087;-71
2022/08/30 10:36:05;;;;;;;12.07;3.88;;;;;;;20.18;67.39;101910.59;5034425;28;20049;-70
2022/08/30 10:38:33;;;;;;;10.80;3.92;;;;;;;20.24;65.02;101906.41;5069127;28;20085;-70
2022/08/30 10:41:17;;;;;;;9.17;3.07;;;;;;;20.27;68.31;101905.25;5051463;28;20051;-72
2022/08/30 10:43:52;;;;;;;9.98;3.85;;;;;;;20.35;66.38;101900.78;5048859;28;20079;-72
2022/08/30 10:46:47;;;;;;;12.10;3.78;;;;;;;20.40;66.46;101905.78;5048979;28;20086;-73
2022/08/30 10:49:20;;;;;;;9.45;3.38;;;;;;;20.46;65.82;101917.97;5039796;28;20036;-73
2022/08/30 10:51:51;;;;;;;7.35;3.03;;;;;;;20.47;66.75;101915.06;5045690;28;20037;-73
2022/08/30 10:54:25;;;;;;;11.85;4.15;;;;;;;20.56;64.38;101902.38;5040437;28;20060;-73
2022/08/30 10:56:52;;;;;;;19.13;4.38;;;;;;;20.60;63.61;101901.03;5047502;28;20029;-73
2022/08/30 10:59:19;;;;;;;10.93;4.00;;;;;;;20.65;65.41;101900.59;5051481;28;20519;-73
2022/08/30 11:02:19;;;;;;;11.35;3.58;;;;;;;20.64;66.78;101894.25;5051080;28;20776;-73
2022/08/30 11:05:21;;;;;;;5.95;2.83;;;;;;;20.67;66.80;101904.91;5047237;28;20053;-73
2022/08/30 11:08:14;;;;;;;9.68;3.33;;;;;;;20.68;63.46;101903.91;5046169;28;20032;-72
2022/08/30 11:10:58;;;;;;;12.43;4.07;;;;;;;20.77;62.90;101893.94;5041298;28;20040;-72
2022/08/30 11:13:30;;;;;;;8.27;3.42;;;;;;;20.79;64.57;101886.44;5043630;28;20104;-72
2022/08/30 11:16:07;;;;;;;12.57;3.67;;;;;;;20.84;63.15;101895.03;5042891;28;20041;-72
2022/08/30 11:18:48;;;;;;;9.00;3.45;;;;;;;20.87;64.64;101900.19;5040669;28;20091;-72
2022/08/30 11:21:22;;;;;;;7.35;3.60;;;;;;;20.95;63.03;101891.22;5039751;28;20057;-72
2022/08/30 11:24:21;;;;;;;12.00;3.83;;;;;;;20.99;63.53;101892.63;5044229;28;20036;-72
2022/08/30 11:26:49;;;;;;;9.55;3.53;;;;;;;21.01;63.69;101892.47;5045984;28;20041;-72
2022/08/30 11:29:39;;;;;;;11.35;3.42;;;;;;;21.09;63.83;101889.81;5043975;28;20033;-72
2022/08/30 11:32:10;;;;;;;10.75;3.70;;;;;;;21.11;61.67;101885.03;5046017;28;20033;-72